Time;durP1;ratioP1;P1;durP2;ratioP2;P2;SDS_P1;SDS_P2;PMS_P1;PMS_P2;Temp;Humidity;BMP_temperature;BMP_pressure;BME280_temperature;BME280_humidity;BME280_pressure;Samples;Min_cycle;Max_cycle;Signal;HPM_P1;HPM_P2
2021/11/18 00:00:27;;;;;;;124.78;77.53;;;154.30;2252.80;;;;;;5093712;28;20353;-89
2021/11/18 00:02:54;;;;;;;121.93;74.53;;;154.30;2252.80;;;;;;5093648;28;20457;-90
2021/11/18 00:05:24;;;;;;;121.68;74.53;;;154.40;2252.80;;;;;;5093527;28;20391;-89
2021/11/18 00:07:51;;;;;;;124.40;71.25;;;154.50;2252.80;;;;;;5093636;28;20353;-90
2021/11/18 00:10:39;;;;;;;119.18;71.22;;;179.20;2252.80;;;;;;5093622;28;20466;-90
2021/11/18 00:13:09;;;;;;;116.53;68.43;;;179.20;2252.80;;;;;;5093629;28;20451;-90
2021/11/18 00:15:36;;;;;;;122.20;73.25;;;179.20;2252.80;;;;;;5093525;28;20423;-89
2021/11/18 00:18:13;;;;;;;124.15;73.68;;;179.30;2252.80;;;;;;5093984;28;20345;-90
2021/11/18 00:20:47;;;;;;;123.10;75.03;;;179.30;2252.80;;;;;;5093840;28;20432;-90
2021/11/18 00:23:14;;;;;;;135.80;79.15;;;179.30;2252.80;;;;;;5094175;28;20418;-91
2021/11/18 00:25:40;;;;;;;129.43;76.95;;;179.30;2252.80;;;;;;5093259;28;20440;-89
2021/11/18 00:28:06;;;;;;;136.63;80.75;;;179.30;2252.80;;;;;;5093515;28;20368;-90
2021/11/18 00:30:33;;;;;;;135.48;79.40;;;179.40;2252.80;;;;;;5093517;28;20338;-90
2021/11/18 00:33:00;;;;;;;141.40;80.55;;;179.30;2252.80;;;;;;5093233;28;20384;-89
2021/11/18 00:35:29;;;;;;;140.40;80.57;;;179.20;2252.80;;;;;;5093286;28;20022;-91
2021/11/18 00:37:56;;;;;;;130.02;75.28;;;179.20;2252.80;;;;;;5093253;28;20373;-89
2021/11/18 00:40:29;;;;;;;125.93;72.95;;;179.30;2252.80;;;;;;5110704;28;20338;-91
2021/11/18 00:42:56;;;;;;;123.05;72.15;;;179.30;2252.80;;;;;;5093250;28;20362;-89
2021/11/18 00:45:24;;;;;;;127.93;76.90;;;179.40;2252.80;;;;;;5093093;28;20367;-89
2021/11/18 00:47:52;;;;;;;125.20;70.78;;;179.40;2252.80;;;;;;5093140;28;20016;-89
2021/11/18 00:50:24;;;;;;;131.35;69.97;;;179.40;2252.80;;;;;;5093148;28;20353;-90
2021/11/18 00:52:50;;;;;;;129.90;76.07;;;179.50;2252.80;;;;;;5093689;28;20333;-89
2021/11/18 00:55:17;;;;;;;117.97;71.70;;;179.50;2252.80;;;;;;5093179;28;20362;-90
2021/11/18 00:57:44;;;;;;;124.10;72.88;;;179.50;2252.80;;;;;;5092982;28;20050;-90
2021/11/18 01:00:22;;;;;;;104.35;64.85;;;179.50;2252.80;;;;;;5093162;28;20388;-92
2021/11/18 01:02:49;;;;;;;98.18;59.25;;;179.60;2252.80;;;;;;5093619;28;20357;-91
2021/11/18 01:05:16;;;;;;;95.68;58.28;;;179.60;2252.80;;;;;;5092935;28;20410;-90
2021/11/18 01:07:43;;;;;;;100.10;57.33;;;179.60;2252.80;;;;;;5093202;28;20377;-90
2021/11/18 01:10:11;;;;;;;88.53;55.50;;;179.60;2252.80;;;;;;5096924;28;20349;-90
2021/11/18 01:12:38;;;;;;;89.50;56.35;;;179.60;2252.80;;;;;;5096910;28;20384;-89
2021/11/18 01:15:09;;;;;;;90.63;54.92;;;179.60;2252.80;;;;;;5096717;28;20027;-90
2021/11/18 01:17:35;;;;;;;79.95;50.95;;;179.70;2252.80;;;;;;5096694;28;20349;-90
2021/11/18 01:20:02;;;;;;;78.53;49.92;;;179.60;2252.80;;;;;;5096888;28;20446;-90
2021/11/18 01:22:31;;;;;;;78.60;51.03;;;179.70;2252.80;;;;;;5096923;28;20353;-90
2021/11/18 01:24:58;;;;;;;78.45;49.53;;;179.70;2252.80;;;;;;5096776;28;20422;-90
2021/11/18 01:27:24;;;;;;;74.03;49.17;;;179.70;2252.80;;;;;;5096584;28;20464;-89
2021/11/18 01:29:50;;;;;;;74.40;49.67;;;179.70;2252.80;;;;;;5096706;28;20431;-90
2021/11/18 01:32:16;;;;;;;79.25;50.88;;;179.70;2252.80;;;;;;5096528;28;20418;-90
2021/11/18 01:34:42;;;;;;;75.70;50.67;;;179.70;2252.80;;;;;;5096557;28;20020;-90
2021/11/18 01:37:08;;;;;;;80.20;48.28;;;179.70;2252.80;;;;;;5096885;28;20448;-90
2021/11/18 01:39:35;;;;;;;80.35;50.20;;;179.60;2252.80;;;;;;5096981;28;20352;-90
2021/11/18 01:42:01;;;;;;;73.65;49.75;;;179.60;2252.80;;;;;;5097234;28;20391;-89
2021/11/18 01:44:37;;;;;;;77.45;50.20;;;179.60;2252.80;;;;;;5096271;28;20444;-90
2021/11/18 01:47:08;;;;;;;73.72;48.97;;;179.70;2252.80;;;;;;5096219;28;20388;-90
2021/11/18 01:49:34;;;;;;;76.70;50.60;;;179.60;2252.80;;;;;;5096150;28;20413;-90
2021/11/18 01:52:03;;;;;;;80.03;51.83;;;179.70;2252.80;;;;;;5096262;28;20368;-90
2021/11/18 01:54:35;;;;;;;83.38;53.75;;;179.60;2252.80;;;;;;5096032;28;20023;-91
2021/11/18 01:57:06;;;;;;;85.85;55.45;;;179.70;2252.80;;;;;;5096104;28;20418;-91
2021/11/18 01:59:36;;;;;;;90.65;58.38;;;179.70;2252.80;;;;;;5096158;28;20350;-90
2021/11/18 02:02:03;;;;;;;90.43;57.97;;;179.80;2252.80;;;;;;5095927;28;20350;-90
2021/11/18 02:04:30;;;;;;;94.03;59.92;;;179.80;2252.80;;;;;;5095827;28;20481;-90
2021/11/18 02:07:04;;;;;;;92.63;58.45;;;179.80;2252.80;;;;;;5095727;28;20392;-90
2021/11/18 02:09:37;;;;;;;91.82;60.13;;;179.80;2252.80;;;;;;5095982;28;20380;-91
2021/11/18 02:12:07;;;;;;;100.88;63.47;;;179.80;2252.80;;;;;;5095865;28;20091;-91
2021/11/18 02:14:36;;;;;;;102.22;63.72;;;179.80;2252.80;;;;;;5095901;28;20379;-91
2021/11/18 02:17:04;;;;;;;99.65;66.63;;;179.80;2252.80;;;;;;5095740;28;20357;-91
2021/11/18 02:19:41;;;;;;;99.43;66.32;;;179.80;2252.80;;;;;;5095436;28;20415;-90
2021/11/18 02:22:08;;;;;;;106.18;67.88;;;179.80;2252.80;;;;;;5095702;28;20380;-91
2021/11/18 02:24:42;;;;;;;101.68;67.32;;;179.90;2252.80;;;;;;5095749;28;20438;-90
2021/11/18 02:27:15;;;;;;;103.18;65.75;;;179.90;2252.80;;;;;;5095487;28;20392;-91
2021/11/18 02:29:46;;;;;;;100.88;65.25;;;179.90;2252.80;;;;;;5095505;28;20375;-90
2021/11/18 02:32:15;;;;;;;97.15;65.00;;;179.90;2252.80;;;;;;5095404;28;20364;-90
2021/11/18 02:34:54;;;;;;;103.00;64.38;;;179.90;2252.80;;;;;;5095286;28;20369;-89
2021/11/18 02:37:21;;;;;;;98.32;63.95;;;180.00;2252.80;;;;;;5095617;28;20359;-90
2021/11/18 02:39:47;;;;;;;97.32;63.42;;;180.00;2252.80;;;;;;5095323;28;20431;-90
2021/11/18 02:42:15;;;;;;;93.32;62.60;;;180.00;2252.80;;;;;;5095124;28;20024;-90
2021/11/18 02:44:42;;;;;;;94.28;60.38;;;180.00;2252.80;;;;;;5095229;28;20430;-91
2021/11/18 02:47:12;;;;;;;97.60;62.63;;;180.00;2252.80;;;;;;5094924;28;20392;-90
2021/11/18 02:49:45;;;;;;;96.13;61.13;;;180.00;2252.80;;;;;;5094988;28;20641;-90
2021/11/18 02:52:13;;;;;;;91.07;60.50;;;180.00;2252.80;;;;;;5094990;28;20369;-90
2021/11/18 02:54:39;;;;;;;98.60;60.47;;;180.00;2252.80;;;;;;5094903;28;20378;-90
2021/11/18 02:57:06;;;;;;;97.65;60.33;;;180.10;2252.80;;;;;;5094804;28;20368;-90
2021/11/18 02:59:33;;;;;;;93.97;58.58;;;180.10;2252.80;;;;;;5094854;28;20495;-90
2021/11/18 03:01:59;;;;;;;97.35;62.08;;;180.10;2252.80;;;;;;5094811;28;20391;-90
2021/11/18 03:04:26;;;;;;;95.47;61.63;;;180.10;2252.80;;;;;;5094679;28;20419;-90
2021/11/18 03:06:53;;;;;;;94.88;59.58;;;180.10;2252.80;;;;;;5094480;28;20437;-89
2021/11/18 03:09:19;;;;;;;95.70;59.33;;;204.80;2252.80;;;;;;5094775;28;20412;-90
2021/11/18 03:11:45;;;;;;;91.38;58.72;;;204.80;2252.80;;;;;;5094600;28;20422;-90
2021/11/18 03:14:11;;;;;;;96.28;60.50;;;204.80;2252.80;;;;;;5094593;28;20020;-90
2021/11/18 03:16:38;;;;;;;98.35;62.38;;;204.80;2252.80;;;;;;5094697;28;20449;-89
2021/11/18 03:19:04;;;;;;;99.30;60.35;;;204.80;2252.80;;;;;;5094648;28;20368;-89
2021/11/18 03:21:31;;;;;;;113.20;60.33;;;204.80;2252.80;;;;;;5094721;28;20533;-89
2021/11/18 03:23:58;;;;;;;91.80;56.10;;;204.80;2252.80;;;;;;5094933;28;20405;-89
2021/11/18 03:26:28;;;;;;;94.38;52.38;;;204.90;2252.80;;;;;;5094025;28;20396;-88
2021/11/18 03:28:56;;;;;;;85.22;49.85;;;204.80;2252.80;;;;;;5094357;28;20420;-89
2021/11/18 03:31:22;;;;;;;80.00;46.90;;;204.80;2252.80;;;;;;5093813;28;20360;-89
2021/11/18 03:33:53;;;;;;;80.53;48.97;;;204.80;2252.80;;;;;;5094838;28;20524;-89
2021/11/18 03:36:22;;;;;;;82.93;48.63;;;204.90;2252.80;;;;;;5094190;28;20372;-90
2021/11/18 03:38:49;;;;;;;87.05;48.00;;;204.90;2252.80;;;;;;5094345;28;20372;-90
2021/11/18 03:41:18;;;;;;;83.75;47.70;;;204.90;2252.80;;;;;;5094099;28;20431;-89
2021/11/18 03:43:58;;;;;;;86.97;49.58;;;204.90;2252.80;;;;;;5094536;28;20377;-89
2021/11/18 03:46:28;;;;;;;92.15;50.45;;;204.90;2252.80;;;;;;5094605;28;20418;-90
2021/11/18 03:48:56;;;;;;;91.65;50.63;;;204.90;2252.80;;;;;;5093812;28;20368;-89
2021/11/18 03:51:23;;;;;;;90.32;50.40;;;205.00;2252.80;;;;;;5094253;28;20364;-90
2021/11/18 03:53:50;;;;;;;89.25;51.30;;;204.90;2252.80;;;;;;5093798;28;20429;-91
2021/11/18 03:56:22;;;;;;;93.15;52.30;;;205.00;2252.80;;;;;;5093798;28;20372;-89
2021/11/18 03:58:48;;;;;;;97.25;52.75;;;205.00;2252.80;;;;;;5093846;28;20412;-90
2021/11/18 04:01:16;;;;;;;92.05;51.97;;;205.00;2252.80;;;;;;5093857;28;20376;-90
2021/11/18 04:03:43;;;;;;;88.47;50.20;;;205.00;2252.80;;;;;;5093719;28;20431;-91
2021/11/18 04:06:09;;;;;;;92.90;51.65;;;205.00;2252.80;;;;;;5093622;28;20376;-91
2021/11/18 04:08:36;;;;;;;90.60;52.15;;;205.00;2252.80;;;;;;5093718;28;20363;-90
2021/11/18 04:11:03;;;;;;;89.30;52.15;;;205.00;2252.80;;;;;;5094082;28;20365;-91
2021/11/18 04:13:29;;;;;;;87.93;50.58;;;205.00;2252.80;;;;;;5093727;28;20405;-91
2021/11/18 04:15:56;;;;;;;95.88;50.67;;;205.00;2252.80;;;;;;5094284;28;20380;-90
2021/11/18 04:18:24;;;;;;;91.88;51.97;;;205.00;2252.80;;;;;;5093682;28;20367;-90
2021/11/18 04:20:52;;;;;;;91.82;52.42;;;205.00;2252.80;;;;;;5093395;28;20364;-89
2021/11/18 04:23:24;;;;;;;93.13;53.05;;;205.00;2252.80;;;;;;5093494;28;20452;-90
2021/11/18 04:25:51;;;;;;;89.60;52.28;;;205.00;2252.80;;;;;;5093146;28;20377;-91
2021/11/18 04:28:17;;;;;;;82.45;49.75;;;205.00;2252.80;;;;;;5093972;28;20399;-91
2021/11/18 04:31:00;;;;;;;94.57;51.05;;;205.00;2252.80;;;;;;5093329;28;20392;-91
2021/11/18 04:33:29;;;;;;;84.47;50.95;;;205.00;2252.80;;;;;;5093318;28;20024;-91
2021/11/18 04:35:56;;;;;;;86.75;51.67;;;205.00;2252.80;;;;;;5093275;28;20020;-90
2021/11/18 04:38:23;;;;;;;92.18;52.38;;;205.00;2252.80;;;;;;5093308;28;20364;-91
2021/11/18 04:40:50;;;;;;;88.45;49.92;;;205.00;2252.80;;;;;;5093235;28;20373;-91
2021/11/18 04:43:17;;;;;;;87.00;49.53;;;205.00;2252.80;;;;;;5096194;28;20368;-90
2021/11/18 04:45:44;;;;;;;92.80;51.78;;;205.00;2252.80;;;;;;5097757;28;20341;-89
2021/11/18 04:48:10;;;;;;;88.05;48.80;;;205.00;2252.80;;;;;;5097301;28;20357;-89
2021/11/18 04:50:37;;;;;;;85.32;50.85;;;205.00;2252.80;;;;;;5097317;28;20407;-89
2021/11/18 04:53:04;;;;;;;93.03;49.58;;;205.00;2252.80;;;;;;5097254;28;20020;-89
2021/11/18 04:55:32;;;;;;;94.13;52.58;;;205.00;2252.80;;;;;;5097219;28;20342;-89
2021/11/18 04:57:59;;;;;;;98.68;52.90;;;205.00;2252.80;;;;;;5097702;28;20364;-89
2021/11/18 05:00:30;;;;;;;98.38;52.70;;;205.10;2252.80;;;;;;5097177;28;20367;-90
2021/11/18 05:02:57;;;;;;;96.20;51.70;;;205.10;2252.80;;;;;;5097281;28;20388;-88
2021/11/18 05:05:25;;;;;;;95.70;54.97;;;205.10;2252.80;;;;;;5097205;28;20417;-89
2021/11/18 05:07:52;;;;;;;91.50;49.83;;;205.10;2252.80;;;;;;5097212;28;20020;-89
2021/11/18 05:10:19;;;;;;;84.40;49.05;;;205.10;2252.80;;;;;;5097251;28;20414;-89
2021/11/18 05:12:45;;;;;;;85.10;48.90;;;205.10;2252.80;;;;;;5097025;28;20372;-90
2021/11/18 05:15:17;;;;;;;87.15;49.47;;;205.10;2252.80;;;;;;5096982;28;20107;-89
2021/11/18 05:17:46;;;;;;;80.85;47.45;;;205.10;2252.80;;;;;;5097392;28;20395;-90
2021/11/18 05:20:14;;;;;;;81.68;48.10;;;205.10;2252.80;;;;;;5096897;28;20395;-90
2021/11/18 05:22:41;;;;;;;86.90;49.33;;;205.00;2252.80;;;;;;5096744;28;20353;-89
2021/11/18 05:25:07;;;;;;;84.25;49.70;;;205.10;2252.80;;;;;;5096730;28;20414;-89
2021/11/18 05:27:34;;;;;;;92.25;55.17;;;205.00;2252.80;;;;;;5096382;28;20392;-89
2021/11/18 05:30:01;;;;;;;185.65;87.28;;;205.10;2252.80;;;;;;5096601;28;20016;-90
2021/11/18 05:32:27;;;;;;;337.08;125.72;;;205.10;2252.80;;;;;;5096500;28;20345;-89
2021/11/18 05:34:53;;;;;;;364.13;139.65;;;205.10;2252.80;;;;;;5096476;28;20365;-90
2021/11/18 05:37:19;;;;;;;169.02;84.60;;;205.10;2252.80;;;;;;5096454;28;20367;-90
2021/11/18 05:39:46;;;;;;;106.38;63.42;;;205.10;2252.80;;;;;;5096391;28;20475;-91
2021/11/18 05:42:12;;;;;;;90.72;51.35;;;205.00;2252.80;;;;;;5096354;28;20368;-91
2021/11/18 05:44:39;;;;;;;78.03;44.85;;;205.00;2252.80;;;;;;5096347;28;20437;-89
2021/11/18 05:47:05;;;;;;;75.43;44.78;;;205.00;2252.80;;;;;;5096637;28;20355;-89
2021/11/18 05:49:31;;;;;;;71.40;41.20;;;205.00;2252.80;;;;;;5096208;28;20367;-89
2021/11/18 05:51:58;;;;;;;72.25;42.08;;;205.00;2252.80;;;;;;5096247;28;20413;-89
2021/11/18 05:54:24;;;;;;;77.25;42.30;;;204.90;2252.80;;;;;;5095376;28;20422;-88
2021/11/18 05:56:50;;;;;;;71.57;42.38;;;204.90;2252.80;;;;;;5096055;28;20353;-90
2021/11/18 05:59:16;;;;;;;68.32;41.60;;;204.80;2252.80;;;;;;5096108;28;20390;-91
2021/11/18 06:01:42;;;;;;;67.25;41.00;;;204.90;2252.80;;;;;;5096224;28;20020;-90
2021/11/18 06:04:09;;;;;;;69.03;41.08;;;204.80;2252.80;;;;;;5096134;28;20338;-90
2021/11/18 06:06:36;;;;;;;72.03;39.83;;;204.80;2252.80;;;;;;5096087;28;20354;-89
2021/11/18 06:09:03;;;;;;;68.70;39.92;;;204.80;2252.80;;;;;;5095896;28;20411;-90
2021/11/18 06:11:36;;;;;;;69.88;39.72;;;204.80;2252.80;;;;;;5095807;28;20376;-90
2021/11/18 06:14:04;;;;;;;64.10;37.43;;;204.80;2252.80;;;;;;5095715;28;20020;-90
2021/11/18 06:16:30;;;;;;;73.03;39.80;;;204.80;2252.80;;;;;;5095660;28;20261;-90
2021/11/18 06:19:00;;;;;;;64.47;36.20;;;204.90;2252.80;;;;;;5095672;28;20387;-90
2021/11/18 06:21:29;;;;;;;58.08;33.72;;;204.90;2252.80;;;;;;5095738;28;20350;-90
2021/11/18 06:23:55;;;;;;;57.80;34.90;;;205.00;2252.80;;;;;;5095678;28;20399;-90
2021/11/18 06:26:25;;;;;;;60.47;33.50;;;204.90;2252.80;;;;;;5095230;28;20411;-91
2021/11/18 06:28:51;;;;;;;62.22;32.90;;;204.90;2252.80;;;;;;5096086;28;20360;-90
2021/11/18 06:31:17;;;;;;;55.47;32.00;;;204.90;2252.80;;;;;;5095442;28;20115;-89
2021/11/18 06:33:44;;;;;;;51.47;30.55;;;204.80;2252.80;;;;;;5095473;28;20372;-92
2021/11/18 06:36:10;;;;;;;55.05;31.98;;;204.90;2252.80;;;;;;5095222;28;20437;-90
2021/11/18 06:38:40;;;;;;;53.42;30.65;;;204.80;2252.80;;;;;;5095355;28;20353;-90
2021/11/18 06:41:07;;;;;;;51.83;31.83;;;204.90;2252.80;;;;;;5095154;28;20368;-90
2021/11/18 06:43:33;;;;;;;61.20;36.35;;;205.00;2252.80;;;;;;5095235;28;20410;-91
2021/11/18 06:46:00;;;;;;;46.75;29.90;;;205.10;2252.80;;;;;;5095042;28;20386;-90
2021/11/18 06:48:30;;;;;;;52.72;29.40;;;205.10;2252.80;;;;;;5095149;28;20372;-90
2021/11/18 06:50:59;;;;;;;45.67;27.92;;;205.10;2252.80;;;;;;5095145;28;20028;-90
2021/11/18 06:53:27;;;;;;;47.08;27.55;;;205.20;2252.80;;;;;;5095624;28;20363;-91
2021/11/18 06:55:54;;;;;;;46.63;28.50;;;205.30;2252.80;;;;;;5095121;28;20364;-90
2021/11/18 06:58:20;;;;;;;45.88;27.65;;;205.30;2252.80;;;;;;5095149;28;20418;-91
2021/11/18 07:00:46;;;;;;;44.22;28.42;;;205.30;2252.80;;;;;;5095869;28;20341;-90
2021/11/18 07:03:15;;;;;;;43.72;25.98;;;205.40;2252.80;;;;;;5095181;28;20375;-91
2021/11/18 07:05:41;;;;;;;48.17;30.23;;;205.50;2252.80;;;;;;5093583;28;20364;-90
2021/11/18 07:08:08;;;;;;;50.85;29.80;;;205.60;2252.80;;;;;;5094721;28;20020;-90
2021/11/18 07:10:38;;;;;;;43.30;27.15;;;205.60;2252.80;;;;;;5094628;28;20410;-90
2021/11/18 07:13:05;;;;;;;57.78;32.80;;;205.60;2252.80;;;;;;5094700;28;20410;-90
2021/11/18 07:15:31;;;;;;;52.90;30.35;;;205.60;2252.80;;;;;;5094528;28;20372;-90
2021/11/18 07:17:58;;;;;;;44.33;28.00;;;205.70;2252.80;;;;;;5094458;28;20429;-90
2021/11/18 07:20:26;;;;;;;37.83;23.20;;;205.70;2252.80;;;;;;5094460;28;20364;-91
2021/11/18 07:22:53;;;;;;;38.60;21.80;;;205.70;2252.80;;;;;;5094306;28;20484;-90
2021/11/18 07:25:22;;;;;;;39.58;23.05;;;205.60;2252.80;;;;;;5094334;28;20348;-90
2021/11/18 07:27:49;;;;;;;36.30;21.35;;;205.60;2252.80;;;;;;5093959;28;20404;-90
2021/11/18 07:30:16;;;;;;;35.17;22.35;;;205.60;2252.80;;;;;;5094163;28;20375;-90
2021/11/18 07:32:43;;;;;;;36.60;22.05;;;205.60;2252.80;;;;;;5094287;28;20380;-90
2021/11/18 07:35:10;;;;;;;36.40;23.00;;;205.50;2252.80;;;;;;5094070;28;20431;-90
2021/11/18 07:37:36;;;;;;;38.95;22.85;;;205.50;2252.80;;;;;;5094258;28;20381;-90
2021/11/18 07:40:08;;;;;;;38.95;24.55;;;205.50;2252.80;;;;;;5094102;28;20377;-90
2021/11/18 07:42:35;;;;;;;49.13;26.23;;;205.50;2252.80;;;;;;5094063;28;20541;-90
2021/11/18 07:45:01;;;;;;;48.13;28.52;;;205.50;2252.80;;;;;;5093994;28;20371;-90
2021/11/18 07:47:27;;;;;;;46.15;28.23;;;205.50;2252.80;;;;;;5094026;28;20036;-89
2021/11/18 07:49:54;;;;;;;62.70;37.15;;;205.50;2252.80;;;;;;5094192;28;20024;-90
2021/11/18 07:52:20;;;;;;;67.65;42.47;;;205.50;2252.80;;;;;;5094072;28;20424;-90
2021/11/18 07:54:46;;;;;;;60.85;36.78;;;205.50;2252.80;;;;;;5094081;28;20386;-90
2021/11/18 07:57:12;;;;;;;197.27;62.08;;;205.60;2252.80;;;;;;5093860;28;20372;-91
2021/11/18 07:59:38;;;;;;;61.47;34.95;;;205.50;2252.80;;;;;;5093679;28;20024;-90
2021/11/18 08:02:05;;;;;;;53.33;30.88;;;205.50;2252.80;;;;;;5093727;28;20353;-91
2021/11/18 08:04:32;;;;;;;53.22;31.23;;;205.50;2252.80;;;;;;5093650;28;20371;-90
2021/11/18 08:07:03;;;;;;;50.92;30.98;;;205.50;2252.80;;;;;;5093582;28;20430;-91
2021/11/18 08:09:30;;;;;;;48.40;28.83;;;205.50;2252.80;;;;;;5093861;28;20367;-91
2021/11/18 08:11:58;;;;;;;48.95;29.38;;;205.50;2252.80;;;;;;5093590;28;20419;-90
2021/11/18 08:14:25;;;;;;;46.80;29.88;;;205.50;2252.80;;;;;;5093605;28;20428;-91
2021/11/18 08:16:53;;;;;;;48.50;30.15;;;205.50;2252.80;;;;;;5093406;28;20407;-91
2021/11/18 08:19:19;;;;;;;55.80;30.42;;;205.50;2252.80;;;;;;5093385;28;20365;-91
2021/11/18 08:21:48;;;;;;;56.63;34.45;;;205.60;2252.80;;;;;;5093438;28;20415;-90
2021/11/18 08:24:16;;;;;;;49.63;31.58;;;205.60;2252.80;;;;;;5093599;28;20414;-90
2021/11/18 08:26:43;;;;;;;45.22;28.90;;;205.60;2252.80;;;;;;5093128;28;20396;-90
2021/11/18 08:29:14;;;;;;;62.00;35.80;;;205.70;2252.80;;;;;;5077713;28;20381;-91
2021/11/18 08:31:41;;;;;;;63.97;40.38;;;205.70;2252.80;;;;;;5110394;28;20380;-91
2021/11/18 08:34:08;;;;;;;50.92;35.22;;;230.40;2252.80;;;;;;5093149;28;20412;-91
2021/11/18 08:36:37;;;;;;;70.10;40.25;;;205.70;2252.80;;;;;;5093254;28;20354;-92
2021/11/18 08:39:08;;;;;;;96.93;43.63;;;230.40;2252.80;;;;;;5093136;28;20353;-92
2021/11/18 08:41:35;;;;;;;53.47;30.27;;;230.40;2252.80;;;;;;5093521;28;20373;-92
2021/11/18 08:44:02;;;;;;;51.10;29.52;;;230.40;2252.80;;;;;;5093319;28;20412;-92
2021/11/18 08:46:29;;;;;;;44.72;29.40;;;230.40;2252.80;;;;;;5093381;28;20028;-93
2021/11/18 08:49:00;;;;;;;47.20;28.88;;;205.70;2252.80;;;;;;5093368;28;20391;-93
2021/11/18 08:51:29;;;;;;;42.88;26.58;;;205.70;2252.80;;;;;;5093880;28;20356;-93
2021/11/18 08:53:57;;;;;;;51.15;28.50;;;205.70;2252.80;;;;;;5093328;28;20414;-92
2021/11/18 08:56:24;;;;;;;46.95;27.98;;;205.70;2252.80;;;;;;5093621;28;20460;-92
2021/11/18 08:58:56;;;;;;;58.20;30.98;;;205.70;2252.80;;;;;;5093708;28;20367;-93
2021/11/18 09:01:35;;;;;;;45.72;29.08;;;205.70;2252.80;;;;;;5093155;28;20473;-90
2021/11/18 09:04:07;;;;;;;41.80;27.33;;;230.40;2252.80;;;;;;5093189;28;20398;-93
2021/11/18 09:06:33;;;;;;;46.65;29.27;;;230.40;2252.80;;;;;;5093012;28;20417;-90
2021/11/18 09:09:00;;;;;;;45.03;27.17;;;230.40;2252.80;;;;;;5093171;28;20390;-91
2021/11/18 09:11:29;;;;;;;55.97;31.83;;;230.40;2252.80;;;;;;5093042;28;20364;-90
2021/11/18 09:13:56;;;;;;;70.65;49.72;;;230.50;2252.80;;;;;;5092939;28;20372;-90
2021/11/18 09:16:24;;;;;;;77.35;48.70;;;230.50;2252.80;;;;;;5093021;28;20346;-90
2021/11/18 09:18:51;;;;;;;123.68;49.75;;;230.60;2252.80;;;;;;5092789;28;20407;-90
2021/11/18 09:21:20;;;;;;;91.18;42.25;;;230.60;2252.80;;;;;;5092950;28;20386;-90
2021/11/18 09:23:51;;;;;;;49.10;29.52;;;230.60;2252.80;;;;;;5092916;28;20353;-90
2021/11/18 09:26:19;;;;;;;40.65;26.38;;;230.70;2252.80;;;;;;5092853;28;20565;-90
2021/11/18 09:28:45;;;;;;;60.17;29.52;;;230.60;2252.80;;;;;;5093201;28;20411;-90
2021/11/18 09:31:15;;;;;;;68.40;37.10;;;230.60;2252.80;;;;;;5097133;28;20375;-90
2021/11/18 09:33:41;;;;;;;65.03;36.33;;;230.70;2252.80;;;;;;5096796;28;20398;-90
2021/11/18 09:36:09;;;;;;;46.60;28.98;;;230.70;2252.80;;;;;;5096411;28;20373;-90
2021/11/18 09:38:40;;;;;;;68.20;35.60;;;230.80;2252.80;;;;;;5096451;28;20540;-89
2021/11/18 09:41:21;;;;;;;55.50;30.55;;;230.80;2252.80;;;;;;5096563;28;20354;-90
2021/11/18 09:44:08;;;;;;;57.00;30.23;;;230.80;2252.80;;;;;;5096560;28;20380;-90
2021/11/18 09:47:08;;;;;;;53.40;31.67;;;230.70;2252.80;;;;;;5096809;28;20353;-90
2021/11/18 09:49:58;;;;;;;53.65;29.55;;;230.80;2252.80;;;;;;5096486;28;20395;-89
2021/11/18 09:56:16;;;;;;;46.30;23.38;;;230.90;2252.80;;;;;;5098228;28;20023;-89
2021/11/18 09:59:12;;;;;;;64.72;41.78;;;231.00;2252.80;;;;;;5099061;28;20435;-90
2021/11/18 10:02:10;;;;;;;43.30;26.73;;;231.00;2252.80;;;;;;5097171;28;20428;-90
2021/11/18 10:05:35;;;;;;;97.28;43.70;;;231.10;2252.80;;;;;;5096909;28;20020;-91
2021/11/18 10:08:14;;;;;;;35.38;20.67;;;231.10;2252.80;;;;;;5017165;28;20441;-90
2021/11/18 10:10:44;;;;;;;78.47;49.50;;;231.30;2252.80;;;;;;4999209;28;20379;-89
2021/11/18 10:13:41;;;;;;;30.60;19.38;;;256.00;2252.80;;;;;;4998898;28;20366;-91
2021/11/18 10:16:18;;;;;;;26.95;19.60;;;231.30;2252.80;;;;;;4998860;28;20022;-91
2021/11/18 10:18:48;;;;;;;66.00;37.75;;;256.00;2252.80;;;;;;4998669;28;20478;-94
2021/11/18 10:21:18;;;;;;;147.15;80.72;;;256.00;2227.20;;;;;;4998696;28;20041;-91
2021/11/18 10:23:46;;;;;;;27.55;17.92;;;256.20;2227.20;;;;;;4998610;28;20514;-92
2021/11/18 10:26:20;;;;;;;84.55;64.13;;;256.20;2201.60;;;;;;5006708;28;20062;-92
2021/11/18 10:29:10;;;;;;;86.50;77.85;;;256.40;2201.60;;;;;;5002864;28;20541;-91
2021/11/18 10:31:49;;;;;;;25.00;20.42;;;256.50;2150.40;;;;;;5017174;28;20061;-90
2021/11/18 10:34:40;;;;;;;42.58;35.28;;;256.60;2176.00;;;;;;5000651;28;20466;-90
2021/11/18 10:37:16;;;;;;;24.48;17.02;;;256.50;2176.00;;;;;;5009850;28;20406;-90
2021/11/18 10:39:45;;;;;;;22.92;16.88;;;256.50;2176.00;;;;;;4998312;28;20609;-90
2021/11/18 10:42:35;;;;;;;23.75;15.32;;;256.50;2150.40;;;;;;4998833;28;20053;-91
2021/11/18 10:45:05;;;;;;;31.95;25.27;;;256.40;2176.00;;;;;;5081012;28;20376;-91
2021/11/18 10:47:43;;;;;;;38.63;26.85;;;256.40;2150.40;;;;;;5095716;28;20356;-92
2021/11/18 10:50:49;;;;;;;34.20;29.63;;;256.40;2150.40;;;;;;5095019;28;20460;-91
2021/11/18 10:53:25;;;;;;;23.08;14.82;;;256.20;2176.00;;;;;;5092071;28;20368;-91
2021/11/18 10:56:08;;;;;;;61.00;44.67;;;256.30;2150.40;;;;;;5095054;28;20062;-90
2021/11/18 10:58:37;;;;;;;45.08;32.33;;;256.40;2176.00;;;;;;5095146;28;20590;-90
2021/11/18 11:01:27;;;;;;;34.10;26.25;;;256.50;2176.00;;;;;;5095390;28;20397;-90
2021/11/18 11:03:59;;;;;;;33.17;25.65;;;256.60;2150.40;;;;;;5095444;28;20365;-92
2021/11/18 11:06:26;;;;;;;37.17;27.88;;;256.50;2124.80;;;;;;5094737;28;20372;-89
2021/11/18 11:09:17;;;;;;;42.33;31.33;;;256.20;2176.00;;;;;;5094503;28;20497;-90
2021/11/18 11:11:52;;;;;;;22.85;16.77;;;256.20;2176.00;;;;;;5094412;28;20483;-89
2021/11/18 11:14:40;;;;;;;81.75;49.15;;;256.20;2201.60;;;;;;5094700;28;20417;-90
2021/11/18 11:17:33;;;;;;;27.40;17.10;;;256.10;2201.60;;;;;;5094566;28;20341;-89
2021/11/18 11:20:52;;;;;;;35.03;22.95;;;256.10;2227.20;;;;;;5094512;28;20460;-90
2021/11/18 11:23:23;;;;;;;65.97;38.30;;;256.00;2227.20;;;;;;5033725;28;20540;-90
2021/11/18 11:26:02;;;;;;;98.53;52.83;;;256.10;2227.20;;;;;;5092499;28;20403;-88
2021/11/18 11:29:02;;;;;;;71.97;39.83;;;256.10;2227.20;;;;;;5095743;28;20375;-89
2021/11/18 11:31:48;;;;;;;39.15;24.27;;;256.20;2252.80;;;;;;5094458;28;20491;-89
2021/11/18 11:34:32;;;;;;;69.15;40.13;;;256.00;2252.80;;;;;;5094279;28;20380;-90
2021/11/18 11:37:04;;;;;;;79.93;45.05;;;256.10;2252.80;;;;;;5095268;28;20317;-91
2021/11/18 11:39:36;;;;;;;45.03;25.77;;;256.10;2252.80;;;;;;5094177;28;20031;-88
2021/11/18 11:42:40;;;;;;;32.88;21.27;;;256.10;2252.80;;;;;;5095211;28;20364;-91
2021/11/18 11:45:37;;;;;;;32.95;20.50;;;256.10;2252.80;;;;;;5094876;28;20533;-91
2021/11/18 11:48:22;;;;;;;87.68;48.47;;;256.00;2252.80;;;;;;5094614;28;20349;-86
2021/11/18 11:51:16;;;;;;;48.38;29.83;;;256.00;2252.80;;;;;;5095265;28;20479;-90
2021/11/18 11:54:08;;;;;;;28.23;18.50;;;256.20;2252.80;;;;;;5093277;28;20353;-89
2021/11/18 11:56:38;;;;;;;48.80;27.45;;;256.30;2252.80;;;;;;5094051;28;20357;-88
2021/11/18 11:59:26;;;;;;;69.93;40.08;;;256.30;2227.20;;;;;;5093481;28;20388;-89
2021/11/18 12:02:08;;;;;;;56.50;32.28;;;256.40;2201.60;;;;;;5094714;28;20093;-92
2021/11/18 12:04:39;;;;;;;68.93;37.75;;;256.40;2201.60;;;;;;5095200;28;20478;-92
2021/11/18 12:07:42;;;;;;;92.28;51.53;;;256.50;2201.60;;;;;;5093606;28;20024;-88
2021/11/18 12:10:21;;;;;;;32.40;18.63;;;256.80;2176.00;;;;;;5093766;28;20417;-88
2021/11/18 12:13:02;;;;;;;35.50;19.92;;;256.90;2150.40;;;;;;5094663;28;20419;-90
2021/11/18 12:15:29;;;;;;;28.65;16.83;;;281.60;2150.40;;;;;;5093541;28;20487;-90
2021/11/18 12:18:04;;;;;;;26.88;17.55;;;256.90;2150.40;;;;;;5093580;28;20368;-89
2021/11/18 12:20:35;;;;;;;27.55;16.25;;;256.60;2176.00;;;;;;5093543;28;20020;-88